sensor_id;sensor_type;location;lat;lon;timestamp;pressure;altitude;pressure_sealevel;temperature;humidity
22582;BME280;47125;48.542;9.052;2023-03-16T00:02:07;96316.28;;;3.84;78.98
22582;BME280;47125;48.542;9.052;2023-03-16T00:12:11;96309.84;;;3.72;79.15
22582;BME280;47125;48.542;9.052;2023-03-16T00:22:17;96308.19;;;3.71;77.89
22582;BME280;47125;48.542;9.052;2023-03-16T00:32:20;96317.00;;;3.57;79.18
22582;BME280;47125;48.542;9.052;2023-03-16T00:42:25;96314.34;;;3.57;78.16
22582;BME280;47125;48.542;9.052;2023-03-16T00:52:28;96320.53;;;3.49;79.03
22582;BME280;47125;48.542;9.052;2023-03-16T01:02:32;96322.47;;;3.41;78.77
22582;BME280;47125;48.542;9.052;2023-03-16T01:12:37;96316.94;;;3.36;79.51
22582;BME280;47125;48.542;9.052;2023-03-16T01:22:41;96307.66;;;3.10;79.44
22582;BME280;47125;48.542;9.052;2023-03-16T01:32:43;96318.41;;;3.09;79.10
22582;BME280;47125;48.542;9.052;2023-03-16T01:42:48;96311.13;;;3.11;79.15
22582;BME280;47125;48.542;9.052;2023-03-16T01:52:51;96304.78;;;3.05;78.47
22582;BME280;47125;48.542;9.052;2023-03-16T02:02:55;96289.09;;;3.04;78.07
22582;BME280;47125;48.542;9.052;2023-03-16T02:12:58;96286.13;;;2.92;78.39
22582;BME280;47125;48.542;9.052;2023-03-16T02:23:02;96271.94;;;2.93;78.29
22582;BME280;47125;48.542;9.052;2023-03-16T02:33:07;96254.28;;;2.94;77.70
22582;BME280;47125;48.542;9.052;2023-03-16T02:43:12;96264.03;;;2.93;77.65
22582;BME280;47125;48.542;9.052;2023-03-16T02:53:17;96268.47;;;2.78;78.60
22582;BME280;47125;48.542;9.052;2023-03-16T03:03:20;96261.94;;;2.74;78.30
22582;BME280;47125;48.542;9.052;2023-03-16T03:13:24;96245.66;;;2.70;77.73
22582;BME280;47125;48.542;9.052;2023-03-16T03:23:26;96241.84;;;2.73;77.28
22582;BME280;47125;48.542;9.052;2023-03-16T03:33:30;96232.03;;;2.52;77.89
22582;BME280;47125;48.542;9.052;2023-03-16T03:43:34;96230.75;;;2.34;78.17
22582;BME280;47125;48.542;9.052;2023-03-16T03:53:38;96221.19;;;2.33;78.73
22582;BME280;47125;48.542;9.052;2023-03-16T04:03:40;96224.19;;;2.30;77.93
22582;BME280;47125;48.542;9.052;2023-03-16T04:13:46;96229.56;;;2.21;77.99
22582;BME280;47125;48.542;9.052;2023-03-16T04:23:49;96217.91;;;2.16;77.48
22582;BME280;47125;48.542;9.052;2023-03-16T04:33:55;96205.72;;;2.00;77.48
22582;BME280;47125;48.542;9.052;2023-03-16T04:43:59;96200.56;;;2.07;77.46
22582;BME280;47125;48.542;9.052;2023-03-16T04:54:03;96194.72;;;1.97;77.12
22582;BME280;47125;48.542;9.052;2023-03-16T05:04:05;96200.88;;;1.89;77.69
22582;BME280;47125;48.542;9.052;2023-03-16T05:14:09;96205.66;;;1.71;77.12
22582;BME280;47125;48.542;9.052;2023-03-16T05:24:12;96202.50;;;1.53;77.42
22582;BME280;47125;48.542;9.052;2023-03-16T05:34:15;96207.41;;;1.56;76.30
22582;BME280;47125;48.542;9.052;2023-03-16T05:44:19;96200.84;;;1.52;76.58
22582;BME280;47125;48.542;9.052;2023-03-16T05:54:23;96193.06;;;1.36;77.34
22582;BME280;47125;48.542;9.052;2023-03-16T06:04:26;96200.50;;;1.55;76.38
22582;BME280;47125;48.542;9.052;2023-03-16T06:14:30;96182.88;;;1.41;77.05
22582;BME280;47125;48.542;9.052;2023-03-16T06:24:32;96194.53;;;1.61;77.71
22582;BME280;47125;48.542;9.052;2023-03-16T06:34:36;96197.81;;;1.63;76.77
22582;BME280;47125;48.542;9.052;2023-03-16T06:44:38;96199.56;;;1.71;77.37
22582;BME280;47125;48.542;9.052;2023-03-16T06:54:42;96207.41;;;1.93;78.28
22582;BME280;47125;48.542;9.052;2023-03-16T07:04:45;96203.34;;;2.05;78.26
22582;BME280;47125;48.542;9.052;2023-03-16T07:14:49;96215.94;;;2.33;78.91
22582;BME280;47125;48.542;9.052;2023-03-16T07:24:54;96215.94;;;2.33;79.75
22582;BME280;47125;48.542;9.052;2023-03-16T07:34:59;96221.66;;;2.51;79.39
22582;BME280;47125;48.542;9.052;2023-03-16T07:45:02;96215.13;;;2.76;79.62
22582;BME280;47125;48.542;9.052;2023-03-16T07:55:06;96218.09;;;3.02;78.48
22582;BME280;47125;48.542;9.052;2023-03-16T08:05:09;96217.88;;;3.18;78.42
22582;BME280;47125;48.542;9.052;2023-03-16T08:15:14;96218.09;;;3.38;79.42
22582;BME280;47125;48.542;9.052;2023-03-16T08:25:16;96226.47;;;3.63;78.43
22582;BME280;47125;48.542;9.052;2023-03-16T08:35:21;96231.84;;;3.97;78.06
22582;BME280;47125;48.542;9.052;2023-03-16T08:45:24;96204.09;;;4.08;77.85
22582;BME280;47125;48.542;9.052;2023-03-16T08:55:28;96190.72;;;4.43;76.51
22582;BME280;47125;48.542;9.052;2023-03-16T09:05:30;96180.91;;;4.65;71.85
22582;BME280;47125;48.542;9.052;2023-03-16T09:15:35;96183.19;;;5.35;69.98
22582;BME280;47125;48.542;9.052;2023-03-16T09:25:39;96171.47;;;5.90;68.03
22582;BME280;47125;48.542;9.052;2023-03-16T09:35:44;96166.28;;;6.61;68.32
22582;BME280;47125;48.542;9.052;2023-03-16T09:45:47;96163.78;;;6.79;65.19
22582;BME280;47125;48.542;9.052;2023-03-16T10:06:34;96156.63;;;7.68;65.63
22582;BME280;47125;48.542;9.052;2023-03-16T10:16:39;96151.88;;;8.02;62.93
22582;BME280;47125;48.542;9.052;2023-03-16T10:26:45;96146.97;;;8.48;62.19
22582;BME280;47125;48.542;9.052;2023-03-16T10:36:52;96139.81;;;9.03;60.75
22582;BME280;47125;48.542;9.052;2023-03-16T10:47:00;96135.47;;;9.50;57.08
22582;BME280;47125;48.542;9.052;2023-03-16T10:57:12;96109.88;;;10.02;55.65
22582;BME280;47125;48.542;9.052;2023-03-16T11:07:17;96094.06;;;10.70;52.05
22582;BME280;47125;48.542;9.052;2023-03-16T11:17:23;96110.63;;;11.35;49.98
22582;BME280;47125;48.542;9.052;2023-03-16T11:27:32;96099.81;;;12.03;50.60
22582;BME280;47125;48.542;9.052;2023-03-16T11:37:40;96080.09;;;12.86;51.26
22582;BME280;47125;48.542;9.052;2023-03-16T11:47:52;96078.63;;;13.44;48.16
22582;BME280;47125;48.542;9.052;2023-03-16T11:58:01;96068.25;;;13.79;46.48
22582;BME280;47125;48.542;9.052;2023-03-16T12:08:10;96047.94;;;14.30;43.68
22582;BME280;47125;48.542;9.052;2023-03-16T12:18:17;96035.38;;;14.82;42.81
22582;BME280;47125;48.542;9.052;2023-03-16T12:28:23;96026.41;;;15.39;38.85
22582;BME280;47125;48.542;9.052;2023-03-16T12:38:32;96022.34;;;14.54;37.97
22582;BME280;47125;48.542;9.052;2023-03-16T12:48:39;96005.47;;;14.22;39.47
22582;BME280;47125;48.542;9.052;2023-03-16T12:58:43;96007.09;;;15.52;37.86
22582;BME280;47125;48.542;9.052;2023-03-16T13:08:49;95997.09;;;16.08;36.47
22582;BME280;47125;48.542;9.052;2023-03-16T13:18:52;96005.22;;;15.83;37.00
22582;BME280;47125;48.542;9.052;2023-03-16T13:28:56;95986.34;;;16.18;35.86
22582;BME280;47125;48.542;9.052;2023-03-16T13:39:02;95986.66;;;17.40;34.26
22582;BME280;47125;48.542;9.052;2023-03-16T13:49:10;95974.03;;;18.03;33.44
22582;BME280;47125;48.542;9.052;2023-03-16T13:59:12;95972.41;;;18.83;32.85
22582;BME280;47125;48.542;9.052;2023-03-16T14:09:17;95967.69;;;19.31;31.26
22582;BME280;47125;48.542;9.052;2023-03-16T14:19:23;95944.56;;;18.78;30.04
22582;BME280;47125;48.542;9.052;2023-03-16T14:29:33;95933.00;;;19.14;29.97
22582;BME280;47125;48.542;9.052;2023-03-16T14:39:36;95908.94;;;19.32;30.10
22582;BME280;47125;48.542;9.052;2023-03-16T14:49:41;95916.78;;;18.72;31.20
22582;BME280;47125;48.542;9.052;2023-03-16T14:59:44;95911.06;;;17.74;32.46
22582;BME280;47125;48.542;9.052;2023-03-16T15:09:48;95912.25;;;16.85;34.66
22582;BME280;47125;48.542;9.052;2023-03-16T15:19:51;95896.03;;;16.26;35.12
22582;BME280;47125;48.542;9.052;2023-03-16T15:29:55;95883.25;;;15.72;36.75
22582;BME280;47125;48.542;9.052;2023-03-16T15:39:58;95893.16;;;14.81;38.58
22582;BME280;47125;48.542;9.052;2023-03-16T15:50:02;95906.03;;;14.69;39.32
22582;BME280;47125;48.542;9.052;2023-03-16T16:00:05;95907.00;;;14.43;40.27
22582;BME280;47125;48.542;9.052;2023-03-16T16:10:10;95900.41;;;14.08;41.13
22582;BME280;47125;48.542;9.052;2023-03-16T16:20:17;95891.06;;;13.74;41.87
22582;BME280;47125;48.542;9.052;2023-03-16T16:30:22;95893.34;;;13.18;42.74
22582;BME280;47125;48.542;9.052;2023-03-16T16:40:29;95880.88;;;13.07;43.58
22582;BME280;47125;48.542;9.052;2023-03-16T16:50:35;95889.53;;;12.83;45.29
22582;BME280;47125;48.542;9.052;2023-03-16T17:00:37;95889.31;;;12.41;47.38
22582;BME280;47125;48.542;9.052;2023-03-16T17:10:43;95891.22;;;12.19;47.77
22582;BME280;47125;48.542;9.052;2023-03-16T17:20:46;95890.78;;;11.83;48.81
22582;BME280;47125;48.542;9.052;2023-03-16T17:30:51;95882.69;;;11.61;49.11
22582;BME280;47125;48.542;9.052;2023-03-16T17:40:54;95884.00;;;11.42;50.38
22582;BME280;47125;48.542;9.052;2023-03-16T17:50:58;95895.69;;;11.20;50.68
22582;BME280;47125;48.542;9.052;2023-03-16T18:01:00;95899.81;;;11.11;50.69
22582;BME280;47125;48.542;9.052;2023-03-16T18:11:06;95890.97;;;11.27;51.81
22582;BME280;47125;48.542;9.052;2023-03-16T18:21:17;95881.00;;;10.89;51.14
22582;BME280;47125;48.542;9.052;2023-03-16T18:31:25;95886.84;;;10.58;50.82
22582;BME280;47125;48.542;9.052;2023-03-16T18:41:38;95884.34;;;10.51;49.62
22582;BME280;47125;48.542;9.052;2023-03-16T18:52:20;95878.56;;;10.42;49.80
22582;BME280;47125;48.542;9.052;2023-03-16T19:02:27;95876.16;;;10.41;48.78
22582;BME280;47125;48.542;9.052;2023-03-16T19:12:31;95871.06;;;10.28;49.92
22582;BME280;47125;48.542;9.052;2023-03-16T19:22:48;95873.09;;;10.09;50.27
22582;BME280;47125;48.542;9.052;2023-03-16T19:32:53;95866.75;;;9.98;50.04
22582;BME280;47125;48.542;9.052;2023-03-16T19:42:56;95866.53;;;9.88;50.52
22582;BME280;47125;48.542;9.052;2023-03-16T19:53:00;95868.75;;;9.80;50.01
22582;BME280;47125;48.542;9.052;2023-03-16T20:03:03;95856.34;;;9.74;51.91
22582;BME280;47125;48.542;9.052;2023-03-16T20:13:09;95851.88;;;9.51;52.55
22582;BME280;47125;48.542;9.052;2023-03-16T20:23:15;95849.91;;;9.35;53.25
22582;BME280;47125;48.542;9.052;2023-03-16T20:33:21;95849.09;;;9.23;53.33
22582;BME280;47125;48.542;9.052;2023-03-16T20:43:25;95832.44;;;9.27;52.93
22582;BME280;47125;48.542;9.052;2023-03-16T20:53:30;95830.38;;;9.06;53.99
22582;BME280;47125;48.542;9.052;2023-03-16T21:03:32;95842.16;;;9.10;53.92
22582;BME280;47125;48.542;9.052;2023-03-16T21:13:37;95841.84;;;9.07;52.87
22582;BME280;47125;48.542;9.052;2023-03-16T21:23:39;95840.88;;;8.90;55.13
22582;BME280;47125;48.542;9.052;2023-03-16T21:33:43;95823.41;;;8.82;55.52
22582;BME280;47125;48.542;9.052;2023-03-16T21:43:46;95830.31;;;8.71;55.56
22582;BME280;47125;48.542;9.052;2023-03-16T21:53:51;95818.06;;;8.70;56.47
22582;BME280;47125;48.542;9.052;2023-03-16T22:03:55;95809.38;;;8.63;56.39
22582;BME280;47125;48.542;9.052;2023-03-16T22:13:59;95788.41;;;8.55;56.93
22582;BME280;47125;48.542;9.052;2023-03-16T22:24:02;95786.22;;;8.52;56.20
22582;BME280;47125;48.542;9.052;2023-03-16T22:34:10;95779.97;;;8.47;56.51
22582;BME280;47125;48.542;9.052;2023-03-16T22:44:20;95771.97;;;8.47;57.04
22582;BME280;47125;48.542;9.052;2023-03-16T22:54:26;95757.03;;;8.34;57.88
22582;BME280;47125;48.542;9.052;2023-03-16T23:04:29;95752.94;;;8.20;58.26
22582;BME280;47125;48.542;9.052;2023-03-16T23:14:34;95745.50;;;8.10;57.95
22582;BME280;47125;48.542;9.052;2023-03-16T23:24:38;95740.38;;;8.09;58.25
22582;BME280;47125;48.542;9.052;2023-03-16T23:34:42;95748.59;;;7.96;57.99
22582;BME280;47125;48.542;9.052;2023-03-16T23:44:45;95748.88;;;7.88;58.49
22582;BME280;47125;48.542;9.052;2023-03-16T23:54:51;95750.56;;;7.70;58.46
